Erie International Tom Ridge Field Erie US
ICAO: KERI
IATA: ERI
Category: Large
Scheduled Services: Yes

Elevation: 732 ft
TransAlt. 18000 ft.

Airport Communications:
APP/DEP:121
ATIS:120.35
CLNC DEL:126.8
CTAF:118.1
GND:121.9
ALTOONA RDO:109.4
TWR:118.1
UNICOM:122.95

KERI Zoom In..

If you have problems with the map follow the link
https://www.worldairports.se/pages/airport.php?
ICAO=KERI

Runways:

(A) RW 02 length 3508 ft width 150 ft
---- / hdg 20

(B) RW 06 length 8420 ft width 150 ft
ILS 110.30 / hdg 64

(C) RW 20 length 3508 ft width 150 ft
---- / hdg 200

(D) RW 24 length 8420 ft width 150 ft
ILS 110.30 / hdg 244

Location; KERI
Day. 16 / Time. 11.13 Zulu
* Altimeter: 29.79
* Temperature: 02° c. 35.6°f.
* Wind from: 220° Speed 12 kn with Gusts up to 19 kn.
Dewpoint: 00° c.
Visibility: 7 Statute Miles.
Clouds: Overcast 500 ft.

KERI 161113Z 22012G19KT 7SM OVC005 02/00 A2979 RMK AO2 RAB00E07 P0000 T00170000


Wind From 220°
Speed 12 kn.

 
 
jpsmedia.com for Web Design worldairports.se 2018   terms of use